sensor_id;sensor_type;location;lat;lon;timestamp;pressure;altitude;pressure_sealevel;temperature;humidity
55576;BME280;41437;45.478;9.116;2023-10-13T00:00:40;100313.06;;;18.29;100.00
55576;BME280;41437;45.478;9.116;2023-10-13T00:03:41;100314.50;;;18.27;100.00
55576;BME280;41437;45.478;9.116;2023-10-13T00:06:43;100325.13;;;18.25;100.00
55576;BME280;41437;45.478;9.116;2023-10-13T00:09:47;100312.28;;;18.24;100.00
55576;BME280;41437;45.478;9.116;2023-10-13T00:12:49;100319.00;;;18.23;100.00
55576;BME280;41437;45.478;9.116;2023-10-13T00:15:50;100313.44;;;18.23;100.00
55576;BME280;41437;45.478;9.116;2023-10-13T00:18:57;100317.13;;;18.18;100.00
55576;BME280;41437;45.478;9.116;2023-10-13T00:21:59;100304.09;;;18.14;100.00
55576;BME280;41437;45.478;9.116;2023-10-13T00:25:10;100306.19;;;18.22;100.00
55576;BME280;41437;45.478;9.116;2023-10-13T00:28:19;100317.00;;;18.28;100.00
55576;BME280;41437;45.478;9.116;2023-10-13T00:31:24;100308.47;;;18.39;100.00
55576;BME280;41437;45.478;9.116;2023-10-13T00:34:29;100310.66;;;18.42;100.00
55576;BME280;41437;45.478;9.116;2023-10-13T00:37:32;100304.53;;;18.40;100.00
55576;BME280;41437;45.478;9.116;2023-10-13T00:40:43;100306.66;;;18.29;100.00
55576;BME280;41437;45.478;9.116;2023-10-13T00:43:51;100310.72;;;18.37;100.00
55576;BME280;41437;45.478;9.116;2023-10-13T00:47:05;100309.38;;;18.34;100.00
55576;BME280;41437;45.478;9.116;2023-10-13T00:50:08;100298.59;;;18.27;100.00
55576;BME280;41437;45.478;9.116;2023-10-13T00:53:11;100297.16;;;18.30;100.00
55576;BME280;41437;45.478;9.116;2023-10-13T00:56:14;100305.84;;;18.28;100.00
55576;BME280;41437;45.478;9.116;2023-10-13T00:59:22;100304.09;;;18.32;100.00
55576;BME280;41437;45.478;9.116;2023-10-13T01:02:25;100294.28;;;18.35;100.00
55576;BME280;41437;45.478;9.116;2023-10-13T01:05:38;100295.44;;;18.34;100.00
55576;BME280;41437;45.478;9.116;2023-10-13T01:08:40;100291.50;;;18.35;100.00
55576;BME280;41437;45.478;9.116;2023-10-13T01:11:46;100295.94;;;18.36;100.00
55576;BME280;41437;45.478;9.116;2023-10-13T01:14:48;100292.66;;;18.34;100.00
55576;BME280;41437;45.478;9.116;2023-10-13T01:17:49;100294.28;;;18.35;100.00
55576;BME280;41437;45.478;9.116;2023-10-13T01:20:50;100296.50;;;18.38;100.00
55576;BME280;41437;45.478;9.116;2023-10-13T01:23:54;100297.84;;;18.41;100.00
55576;BME280;41437;45.478;9.116;2023-10-13T01:26:55;100296.41;;;18.43;100.00
55576;BME280;41437;45.478;9.116;2023-10-13T01:29:57;100296.31;;;18.48;100.00
55576;BME280;41437;45.478;9.116;2023-10-13T01:32:58;100290.16;;;18.51;100.00
55576;BME280;41437;45.478;9.116;2023-10-13T01:36:00;100287.63;;;18.50;100.00
55576;BME280;41437;45.478;9.116;2023-10-13T01:39:08;100282.38;;;18.48;100.00
55576;BME280;41437;45.478;9.116;2023-10-13T01:42:11;100286.81;;;18.49;100.00
55576;BME280;41437;45.478;9.116;2023-10-13T01:45:16;100282.38;;;18.48;100.00
55576;BME280;41437;45.478;9.116;2023-10-13T01:48:20;100275.13;;;18.47;100.00
55576;BME280;41437;45.478;9.116;2023-10-13T01:51:21;100278.53;;;18.44;100.00
55576;BME280;41437;45.478;9.116;2023-10-13T01:54:29;100285.75;;;18.45;100.00
55576;BME280;41437;45.478;9.116;2023-10-13T02:00:59;100281.53;;;18.48;100.00
55576;BME280;41437;45.478;9.116;2023-10-13T02:04:02;100276.78;;;18.48;100.00
55576;BME280;41437;45.478;9.116;2023-10-13T02:07:05;100275.97;;;18.48;100.00
55576;BME280;41437;45.478;9.116;2023-10-13T02:10:10;100272.22;;;18.39;100.00
55576;BME280;41437;45.478;9.116;2023-10-13T02:13:13;100273.25;;;18.43;100.00
55576;BME280;41437;45.478;9.116;2023-10-13T02:16:17;100275.22;;;18.42;100.00
55576;BME280;41437;45.478;9.116;2023-10-13T02:19:22;100271.81;;;18.45;100.00
55576;BME280;41437;45.478;9.116;2023-10-13T02:22:27;100276.34;;;18.41;100.00
55576;BME280;41437;45.478;9.116;2023-10-13T02:25:45;100265.81;;;18.38;100.00
55576;BME280;41437;45.478;9.116;2023-10-13T02:28:47;100266.41;;;18.35;100.00
55576;BME280;41437;45.478;9.116;2023-10-13T02:34:55;100257.72;;;18.37;100.00
55576;BME280;41437;45.478;9.116;2023-10-13T02:38:05;100263.09;;;18.33;100.00
55576;BME280;41437;45.478;9.116;2023-10-13T02:41:12;100260.50;;;18.37;100.00
55576;BME280;41437;45.478;9.116;2023-10-13T02:44:19;100264.34;;;18.41;100.00
55576;BME280;41437;45.478;9.116;2023-10-13T02:47:27;100257.81;;;18.50;100.00
55576;BME280;41437;45.478;9.116;2023-10-13T02:50:32;100259.44;;;18.51;100.00
55576;BME280;41437;45.478;9.116;2023-10-13T02:53:33;100258.41;;;18.47;100.00
55576;BME280;41437;45.478;9.116;2023-10-13T02:56:50;100263.38;;;18.50;100.00
55576;BME280;41437;45.478;9.116;2023-10-13T02:59:57;100256.34;;;18.53;100.00
55576;BME280;41437;45.478;9.116;2023-10-13T03:03:12;100253.88;;;18.51;100.00
55576;BME280;41437;45.478;9.116;2023-10-13T03:06:15;100259.44;;;18.51;100.00
55576;BME280;41437;45.478;9.116;2023-10-13T03:09:15;100256.34;;;18.53;100.00
55576;BME280;41437;45.478;9.116;2023-10-13T03:12:21;100258.41;;;18.47;100.00
55576;BME280;41437;45.478;9.116;2023-10-13T03:15:25;100256.34;;;18.53;100.00
55576;BME280;41437;45.478;9.116;2023-10-13T03:18:30;100262.34;;;18.46;100.00
55576;BME280;41437;45.478;9.116;2023-10-13T03:21:34;100261.47;;;18.46;100.00
55576;BME280;41437;45.478;9.116;2023-10-13T03:24:37;100257.94;;;18.40;100.00
55576;BME280;41437;45.478;9.116;2023-10-13T03:27:46;100254.41;;;18.34;100.00
55576;BME280;41437;45.478;9.116;2023-10-13T03:31:01;100258.00;;;18.54;100.00
55576;BME280;41437;45.478;9.116;2023-10-13T03:34:03;100258.81;;;18.54;100.00
55576;BME280;41437;45.478;9.116;2023-10-13T03:37:05;100256.03;;;18.54;100.00
55576;BME280;41437;45.478;9.116;2023-10-13T03:40:12;100259.72;;;18.50;100.00
55576;BME280;41437;45.478;9.116;2023-10-13T03:43:29;100255.06;;;18.45;100.00
55576;BME280;41437;45.478;9.116;2023-10-13T03:46:31;100251.75;;;18.43;100.00
55576;BME280;41437;45.478;9.116;2023-10-13T03:49:33;100245.13;;;18.39;100.00
55576;BME280;41437;45.478;9.116;2023-10-13T03:52:37;100249.66;;;18.35;100.00
55576;BME280;41437;45.478;9.116;2023-10-13T03:55:39;100249.34;;;18.37;100.00
55576;BME280;41437;45.478;9.116;2023-10-13T03:58:49;100242.94;;;18.36;100.00
55576;BME280;41437;45.478;9.116;2023-10-13T04:01:53;100252.75;;;18.33;100.00
55576;BME280;41437;45.478;9.116;2023-10-13T04:05:00;100246.88;;;18.35;100.00
55576;BME280;41437;45.478;9.116;2023-10-13T04:08:08;100255.25;;;18.35;100.00
55576;BME280;41437;45.478;9.116;2023-10-13T04:11:23;100246.56;;;18.37;100.00
55576;BME280;41437;45.478;9.116;2023-10-13T04:15:15;100251.53;;;18.40;100.00
55576;BME280;41437;45.478;9.116;2023-10-13T04:18:19;100251.75;;;18.43;100.00
55576;BME280;41437;45.478;9.116;2023-10-13T04:21:34;100254.00;;;18.41;100.00
55576;BME280;41437;45.478;9.116;2023-10-13T04:24:42;100246.28;;;18.38;100.00
55576;BME280;41437;45.478;9.116;2023-10-13T04:28:00;100251.53;;;18.40;100.00
55576;BME280;41437;45.478;9.116;2023-10-13T04:31:35;100239.00;;;18.37;100.00
55576;BME280;41437;45.478;9.116;2023-10-13T04:34:56;100243.41;;;18.43;100.00
55576;BME280;41437;45.478;9.116;2023-10-13T04:38:09;100243.47;;;18.38;100.00
55576;BME280;41437;45.478;9.116;2023-10-13T04:41:19;100245.00;;;18.30;100.00
55576;BME280;41437;45.478;9.116;2023-10-13T04:44:35;100242.06;;;18.22;100.00
55576;BME280;41437;45.478;9.116;2023-10-13T04:47:57;100243.28;;;18.16;100.00
55576;BME280;41437;45.478;9.116;2023-10-13T04:51:14;100249.81;;;18.25;100.00
55576;BME280;41437;45.478;9.116;2023-10-13T04:54:51;100249.28;;;18.23;100.00
55576;BME280;41437;45.478;9.116;2023-10-13T04:57:54;100245.44;;;18.19;100.00
55576;BME280;41437;45.478;9.116;2023-10-13T05:01:11;100252.75;;;18.15;100.00
55576;BME280;41437;45.478;9.116;2023-10-13T05:04:42;100248.31;;;18.14;100.00
55576;BME280;41437;45.478;9.116;2023-10-13T05:07:57;100258.94;;;18.12;100.00
55576;BME280;41437;45.478;9.116;2023-10-13T05:11:16;100250.78;;;18.15;100.00
55576;BME280;41437;45.478;9.116;2023-10-13T05:14:35;100255.03;;;18.13;100.00
55576;BME280;41437;45.478;9.116;2023-10-13T05:17:54;100251.63;;;18.16;100.00
55576;BME280;41437;45.478;9.116;2023-10-13T05:24:48;100263.31;;;18.18;100.00
55576;BME280;41437;45.478;9.116;2023-10-13T05:28:07;100275.38;;;18.13;100.00
55576;BME280;41437;45.478;9.116;2023-10-13T05:31:26;100272.88;;;18.12;100.00
55576;BME280;41437;45.478;9.116;2023-10-13T05:34:45;100277.84;;;18.15;100.00
55576;BME280;41437;45.478;9.116;2023-10-13T05:38:16;100281.69;;;18.19;100.00
55576;BME280;41437;45.478;9.116;2023-10-13T05:41:35;100284.47;;;18.19;100.00
55576;BME280;41437;45.478;9.116;2023-10-13T05:44:54;100291.19;;;18.18;100.00
55576;BME280;41437;45.478;9.116;2023-10-13T05:48:19;100287.59;;;18.17;100.00
55576;BME280;41437;45.478;9.116;2023-10-13T05:51:34;100300.94;;;18.20;100.00
55576;BME280;41437;45.478;9.116;2023-10-13T05:54:47;100293.41;;;18.21;100.00
55576;BME280;41437;45.478;9.116;2023-10-13T05:58:07;100307.84;;;18.23;100.00
55576;BME280;41437;45.478;9.116;2023-10-13T06:01:27;100304.09;;;18.14;100.00
55576;BME280;41437;45.478;9.116;2023-10-13T06:04:46;100310.78;;;18.13;100.00
55576;BME280;41437;45.478;9.116;2023-10-13T06:08:05;100316.59;;;18.16;100.00
55576;BME280;41437;45.478;9.116;2023-10-13T06:11:24;100315.81;;;18.11;100.00
55576;BME280;41437;45.478;9.116;2023-10-13T06:14:46;100316.38;;;18.13;100.00
55576;BME280;41437;45.478;9.116;2023-10-13T06:18:05;100315.16;;;18.19;100.00
55576;BME280;41437;45.478;9.116;2023-10-13T06:21:24;100317.84;;;18.29;100.00
55576;BME280;41437;45.478;9.116;2023-10-13T06:24:43;100329.72;;;18.53;100.00
55576;BME280;41437;45.478;9.116;2023-10-13T06:28:03;100331.25;;;18.65;100.00
55576;BME280;41437;45.478;9.116;2023-10-13T06:31:23;100335.41;;;19.19;100.00
55576;BME280;41437;45.478;9.116;2023-10-13T06:34:27;100339.22;;;19.55;100.00
55576;BME280;41437;45.478;9.116;2023-10-13T06:37:37;100340.72;;;19.94;100.00
55576;BME280;41437;45.478;9.116;2023-10-13T06:40:44;100338.31;;;20.01;100.00
55576;BME280;41437;45.478;9.116;2023-10-13T06:43:53;100347.06;;;20.36;100.00
55576;BME280;41437;45.478;9.116;2023-10-13T06:47:01;100348.50;;;20.61;100.00
55576;BME280;41437;45.478;9.116;2023-10-13T06:50:07;100361.31;;;20.98;100.00
55576;BME280;41437;45.478;9.116;2023-10-13T06:53:15;100355.44;;;20.64;100.00
55576;BME280;41437;45.478;9.116;2023-10-13T06:56:17;100360.75;;;20.51;100.00
55576;BME280;41437;45.478;9.116;2023-10-13T06:59:22;100359.69;;;20.47;100.00
55576;BME280;41437;45.478;9.116;2023-10-13T07:02:28;100365.22;;;20.39;100.00
55576;BME280;41437;45.478;9.116;2023-10-13T07:05:34;100371.78;;;20.70;100.00
55576;BME280;41437;45.478;9.116;2023-10-13T07:08:35;100377.88;;;20.86;100.00
55576;BME280;41437;45.478;9.116;2023-10-13T07:11:37;100377.56;;;21.32;100.00
55576;BME280;41437;45.478;9.116;2023-10-13T07:14:46;100388.59;;;21.82;100.00
55576;BME280;41437;45.478;9.116;2023-10-13T07:17:54;100385.66;;;21.12;100.00
55576;BME280;41437;45.478;9.116;2023-10-13T07:20:59;100385.69;;;21.34;100.00
55576;BME280;41437;45.478;9.116;2023-10-13T07:24:09;100393.28;;;21.20;100.00
55576;BME280;41437;45.478;9.116;2023-10-13T07:27:11;100394.06;;;21.12;100.00
55576;BME280;41437;45.478;9.116;2023-10-13T07:30:22;100399.16;;;21.09;100.00
55576;BME280;41437;45.478;9.116;2023-10-13T07:33:28;100393.06;;;20.94;100.00
55576;BME280;41437;45.478;9.116;2023-10-13T07:36:31;100395.38;;;21.14;100.00
55576;BME280;41437;45.478;9.116;2023-10-13T07:39:39;100400.91;;;20.83;100.00
55576;BME280;41437;45.478;9.116;2023-10-13T07:42:42;100403.16;;;20.95;100.00
55576;BME280;41437;45.478;9.116;2023-10-13T07:45:47;100404.88;;;21.27;100.00
55576;BME280;41437;45.478;9.116;2023-10-13T07:49:01;100403.72;;;21.28;100.00
55576;BME280;41437;45.478;9.116;2023-10-13T07:52:15;100405.09;;;21.53;100.00
55576;BME280;41437;45.478;9.116;2023-10-13T07:55:24;100407.50;;;21.46;100.00
55576;BME280;41437;45.478;9.116;2023-10-13T07:58:25;100410.22;;;21.82;100.00
55576;BME280;41437;45.478;9.116;2023-10-13T08:01:26;100418.03;;;22.02;100.00
55576;BME280;41437;45.478;9.116;2023-10-13T08:04:29;100415.41;;;22.06;100.00
55576;BME280;41437;45.478;9.116;2023-10-13T08:07:35;100417.66;;;22.18;100.00
55576;BME280;41437;45.478;9.116;2023-10-13T08:10:40;100422.63;;;22.21;100.00
55576;BME280;41437;45.478;9.116;2023-10-13T08:13:49;100425.91;;;22.23;100.00
55576;BME280;41437;45.478;9.116;2023-10-13T08:16:54;100416.53;;;22.27;100.00
55576;BME280;41437;45.478;9.116;2023-10-13T08:20:01;100423.25;;;22.18;100.00
55576;BME280;41437;45.478;9.116;2023-10-13T08:23:12;100426.28;;;22.30;100.00
55576;BME280;41437;45.478;9.116;2023-10-13T08:26:34;100425.94;;;22.31;100.00
55576;BME280;41437;45.478;9.116;2023-10-13T08:29:53;100430.41;;;22.32;100.00
55576;BME280;41437;45.478;9.116;2023-10-13T08:33:26;100427.84;;;22.62;100.00
55576;BME280;41437;45.478;9.116;2023-10-13T08:36:30;100431.00;;;22.61;100.00
55576;BME280;41437;45.478;9.116;2023-10-13T08:39:31;100432.03;;;22.82;100.00
55576;BME280;41437;45.478;9.116;2023-10-13T08:42:47;100433.31;;;22.76;100.00
55576;BME280;41437;45.478;9.116;2023-10-13T08:46:09;100436.47;;;22.74;100.00
55576;BME280;41437;45.478;9.116;2023-10-13T08:49:24;100438.13;;;22.84;100.00
55576;BME280;41437;45.478;9.116;2023-10-13T08:52:31;100435.50;;;22.88;100.00
55576;BME280;41437;45.478;9.116;2023-10-13T08:55:46;100435.31;;;22.84;100.00
55576;BME280;41437;45.478;9.116;2023-10-13T08:59:02;100435.47;;;22.79;100.00
55576;BME280;41437;45.478;9.116;2023-10-13T09:02:11;100436.47;;;22.83;100.00
55576;BME280;41437;45.478;9.116;2023-10-13T09:05:16;100436.13;;;22.76;100.00
55576;BME280;41437;45.478;9.116;2023-10-13T09:08:33;100436.97;;;22.85;100.00
55576;BME280;41437;45.478;9.116;2023-10-13T09:11:44;100443.31;;;22.99;100.00
55576;BME280;41437;45.478;9.116;2023-10-13T09:14:51;100449.59;;;23.14;100.00
55576;BME280;41437;45.478;9.116;2023-10-13T09:17:57;100443.56;;;22.89;100.00
55576;BME280;41437;45.478;9.116;2023-10-13T09:21:14;100446.09;;;23.51;100.00
55576;BME280;41437;45.478;9.116;2023-10-13T09:24:45;100446.53;;;23.88;100.00
55576;BME280;41437;45.478;9.116;2023-10-13T09:27:51;100445.13;;;24.12;100.00
55576;BME280;41437;45.478;9.116;2023-10-13T09:30:53;100443.97;;;24.13;100.00
55576;BME280;41437;45.478;9.116;2023-10-13T09:33:57;100435.81;;;24.20;99.59
55576;BME280;41437;45.478;9.116;2023-10-13T09:36:58;100432.97;;;23.90;99.68
55576;BME280;41437;45.478;9.116;2023-10-13T09:40:13;100435.69;;;24.16;99.53
55576;BME280;41437;45.478;9.116;2023-10-13T09:43:27;100436.88;;;24.45;95.64
55576;BME280;41437;45.478;9.116;2023-10-13T09:46:30;100432.09;;;24.37;94.89
55576;BME280;41437;45.478;9.116;2023-10-13T09:49:38;100432.44;;;23.97;94.80
55576;BME280;41437;45.478;9.116;2023-10-13T09:52:45;100438.81;;;24.15;93.65
55576;BME280;41437;45.478;9.116;2023-10-13T09:55:49;100436.91;;;24.36;92.84
55576;BME280;41437;45.478;9.116;2023-10-13T09:58:55;100428.47;;;24.66;90.83
55576;BME280;41437;45.478;9.116;2023-10-13T10:01:57;100434.66;;;25.10;87.56
55576;BME280;41437;45.478;9.116;2023-10-13T10:05:00;100435.25;;;25.15;87.36
55576;BME280;41437;45.478;9.116;2023-10-13T10:08:13;100429.16;;;25.13;87.17
55576;BME280;41437;45.478;9.116;2023-10-13T10:14:56;100422.19;;;24.30;92.05
55576;BME280;41437;45.478;9.116;2023-10-13T10:18:03;100423.41;;;24.21;94.39
55576;BME280;41437;45.478;9.116;2023-10-13T10:21:05;100421.00;;;23.93;95.83
55576;BME280;41437;45.478;9.116;2023-10-13T10:24:14;100419.72;;;24.20;93.66
55576;BME280;41437;45.478;9.116;2023-10-13T10:27:29;100415.44;;;24.23;92.73
55576;BME280;41437;45.478;9.116;2023-10-13T10:30:35;100422.38;;;24.25;93.39
55576;BME280;41437;45.478;9.116;2023-10-13T10:33:39;100418.41;;;24.26;94.07
55576;BME280;41437;45.478;9.116;2023-10-13T10:36:42;100414.84;;;24.08;94.90
55576;BME280;41437;45.478;9.116;2023-10-13T10:39:46;100415.63;;;24.18;95.04
55576;BME280;41437;45.478;9.116;2023-10-13T10:42:50;100403.91;;;24.45;93.30
55576;BME280;41437;45.478;9.116;2023-10-13T10:45:54;100403.78;;;24.63;91.57
55576;BME280;41437;45.478;9.116;2023-10-13T10:49:03;100403.25;;;24.69;88.26
55576;BME280;41437;45.478;9.116;2023-10-13T10:52:06;100404.22;;;24.94;85.63
55576;BME280;41437;45.478;9.116;2023-10-13T10:55:19;100393.53;;;25.09;81.60
55576;BME280;41437;45.478;9.116;2023-10-13T10:58:22;100400.78;;;24.68;81.73
55576;BME280;41437;45.478;9.116;2023-10-13T11:01:31;100393.25;;;24.51;85.75
55576;BME280;41437;45.478;9.116;2023-10-13T11:04:38;100386.44;;;24.22;87.52
55576;BME280;41437;45.478;9.116;2023-10-13T11:07:50;100380.03;;;24.13;89.29
55576;BME280;41437;45.478;9.116;2023-10-13T11:10:52;100378.31;;;24.29;88.67
55576;BME280;41437;45.478;9.116;2023-10-13T11:13:54;100372.28;;;24.69;86.54
55576;BME280;41437;45.478;9.116;2023-10-13T11:17:20;100367.50;;;24.40;86.20
55576;BME280;41437;45.478;9.116;2023-10-13T11:20:25;100366.91;;;24.55;86.68
55576;BME280;41437;45.478;9.116;2023-10-13T11:23:33;100357.19;;;25.28;84.19
55576;BME280;41437;45.478;9.116;2023-10-13T11:26:36;100354.78;;;24.55;85.43
55576;BME280;41437;45.478;9.116;2023-10-13T11:29:50;100348.63;;;24.32;86.60
55576;BME280;41437;45.478;9.116;2023-10-13T11:32:59;100340.56;;;24.22;88.45
55576;BME280;41437;45.478;9.116;2023-10-13T11:36:01;100338.22;;;24.24;92.04
55576;BME280;41437;45.478;9.116;2023-10-13T11:39:03;100331.03;;;24.44;86.77
55576;BME280;41437;45.478;9.116;2023-10-13T11:42:16;100323.84;;;24.25;88.76
55576;BME280;41437;45.478;9.116;2023-10-13T11:45:18;100324.38;;;24.69;83.84
55576;BME280;41437;45.478;9.116;2023-10-13T11:48:37;100318.41;;;25.04;79.97
55576;BME280;41437;45.478;9.116;2023-10-13T11:51:38;100319.78;;;24.98;80.14
55576;BME280;41437;45.478;9.116;2023-10-13T11:54:39;100315.84;;;24.78;82.23
55576;BME280;41437;45.478;9.116;2023-10-13T11:57:42;100309.63;;;24.64;83.52
55576;BME280;41437;45.478;9.116;2023-10-13T12:00:43;100310.94;;;24.87;77.30
55576;BME280;41437;45.478;9.116;2023-10-13T12:04:03;100307.34;;;25.32;76.21
55576;BME280;41437;45.478;9.116;2023-10-13T12:07:22;100301.88;;;25.72;67.63
55576;BME280;41437;45.478;9.116;2023-10-13T12:10:28;100299.22;;;25.88;66.94
55576;BME280;41437;45.478;9.116;2023-10-13T12:13:49;100288.63;;;26.22;62.97
55576;BME280;41437;45.478;9.116;2023-10-13T12:16:51;100298.34;;;26.89;54.63
55576;BME280;41437;45.478;9.116;2023-10-13T12:19:54;100296.97;;;27.11;54.19
55576;BME280;41437;45.478;9.116;2023-10-13T12:22:57;100292.88;;;27.24;53.35
55576;BME280;41437;45.478;9.116;2023-10-13T12:26:09;100304.69;;;27.26;53.00
55576;BME280;41437;45.478;9.116;2023-10-13T12:29:19;100283.94;;;27.22;52.46
55576;BME280;41437;45.478;9.116;2023-10-13T12:32:23;100295.66;;;27.52;50.37
55576;BME280;41437;45.478;9.116;2023-10-13T12:35:27;100279.66;;;27.28;49.12
55576;BME280;41437;45.478;9.116;2023-10-13T12:38:30;100285.00;;;26.90;52.98
55576;BME280;41437;45.478;9.116;2023-10-13T12:41:51;100274.81;;;26.32;53.41
55576;BME280;41437;45.478;9.116;2023-10-13T12:45:10;100278.59;;;25.63;56.41
55576;BME280;41437;45.478;9.116;2023-10-13T12:48:29;100262.50;;;24.73;59.83
55576;BME280;41437;45.478;9.116;2023-10-13T12:51:50;100260.66;;;24.56;61.97
55576;BME280;41437;45.478;9.116;2023-10-13T12:54:54;100255.13;;;24.47;61.32
55576;BME280;41437;45.478;9.116;2023-10-13T12:58:09;100249.09;;;25.03;61.71
55576;BME280;41437;45.478;9.116;2023-10-13T13:01:10;100254.25;;;25.46;60.70
55576;BME280;41437;45.478;9.116;2023-10-13T13:04:13;100248.38;;;25.64;61.13
55576;BME280;41437;45.478;9.116;2023-10-13T13:07:21;100251.66;;;25.41;62.93
55576;BME280;41437;45.478;9.116;2023-10-13T13:10:23;100254.75;;;25.48;60.92
55576;BME280;41437;45.478;9.116;2023-10-13T13:13:36;100243.44;;;25.36;62.40
55576;BME280;41437;45.478;9.116;2023-10-13T13:16:37;100241.41;;;25.12;61.14
55576;BME280;41437;45.478;9.116;2023-10-13T13:19:39;100232.06;;;24.99;61.63
55576;BME280;41437;45.478;9.116;2023-10-13T13:22:42;100235.06;;;24.94;62.35
55576;BME280;41437;45.478;9.116;2023-10-13T13:25:44;100235.69;;;24.67;63.11
55576;BME280;41437;45.478;9.116;2023-10-13T13:28:46;100224.56;;;24.70;64.01
55576;BME280;41437;45.478;9.116;2023-10-13T13:31:50;100222.75;;;24.87;61.89
55576;BME280;41437;45.478;9.116;2023-10-13T13:34:52;100226.47;;;24.78;62.95
55576;BME280;41437;45.478;9.116;2023-10-13T13:38:00;100221.19;;;25.10;64.50
55576;BME280;41437;45.478;9.116;2023-10-13T13:41:11;100215.94;;;25.45;60.63
55576;BME280;41437;45.478;9.116;2023-10-13T13:44:16;100218.31;;;25.92;59.36
55576;BME280;41437;45.478;9.116;2023-10-13T13:47:17;100213.72;;;26.00;61.50
55576;BME280;41437;45.478;9.116;2023-10-13T13:50:21;100203.63;;;25.87;61.23
55576;BME280;41437;45.478;9.116;2023-10-13T13:53:26;100198.66;;;25.84;61.61
55576;BME280;41437;45.478;9.116;2023-10-13T13:56:33;100201.13;;;25.36;62.87
55576;BME280;41437;45.478;9.116;2023-10-13T13:59:38;100193.34;;;24.75;65.49
55576;BME280;41437;45.478;9.116;2023-10-13T14:02:43;100188.59;;;24.34;67.26
55576;BME280;41437;45.478;9.116;2023-10-13T14:05:47;100181.25;;;24.21;68.13
55576;BME280;41437;45.478;9.116;2023-10-13T14:08:52;100184.34;;;24.49;67.59
55576;BME280;41437;45.478;9.116;2023-10-13T14:11:56;100186.25;;;24.36;67.46
55576;BME280;41437;45.478;9.116;2023-10-13T14:15:11;100178.63;;;24.37;65.78
55576;BME280;41437;45.478;9.116;2023-10-13T14:18:23;100178.44;;;24.21;68.53
55576;BME280;41437;45.478;9.116;2023-10-13T14:21:30;100172.72;;;24.29;70.58
55576;BME280;41437;45.478;9.116;2023-10-13T14:24:34;100172.97;;;24.57;68.04
55576;BME280;41437;45.478;9.116;2023-10-13T14:27:43;100176.41;;;24.63;67.62
55576;BME280;41437;45.478;9.116;2023-10-13T14:30:45;100163.66;;;24.45;68.46
55576;BME280;41437;45.478;9.116;2023-10-13T14:33:46;100170.25;;;24.82;67.10
55576;BME280;41437;45.478;9.116;2023-10-13T14:36:48;100169.06;;;24.83;65.60
55576;BME280;41437;45.478;9.116;2023-10-13T14:39:51;100168.03;;;25.00;65.27
55576;BME280;41437;45.478;9.116;2023-10-13T14:42:56;100159.53;;;25.21;64.19
55576;BME280;41437;45.478;9.116;2023-10-13T14:45:58;100159.22;;;25.01;65.15
55576;BME280;41437;45.478;9.116;2023-10-13T14:49:01;100164.16;;;24.92;66.97
55576;BME280;41437;45.478;9.116;2023-10-13T14:52:02;100153.69;;;24.93;65.09
55576;BME280;41437;45.478;9.116;2023-10-13T14:55:06;100156.41;;;25.01;64.46
55576;BME280;41437;45.478;9.116;2023-10-13T14:58:18;100149.41;;;25.20;62.21
55576;BME280;41437;45.478;9.116;2023-10-13T15:01:26;100150.31;;;25.12;62.79
55576;BME280;41437;45.478;9.116;2023-10-13T15:04:28;100145.41;;;24.63;66.68
55576;BME280;41437;45.478;9.116;2023-10-13T15:07:32;100145.16;;;24.56;68.10
55576;BME280;41437;45.478;9.116;2023-10-13T15:10:35;100142.72;;;24.67;66.34
55576;BME280;41437;45.478;9.116;2023-10-13T15:13:37;100137.44;;;24.65;68.10
55576;BME280;41437;45.478;9.116;2023-10-13T15:16:38;100138.34;;;24.57;66.94
55576;BME280;41437;45.478;9.116;2023-10-13T15:19:41;100141.31;;;24.61;67.45
55576;BME280;41437;45.478;9.116;2023-10-13T15:22:43;100142.97;;;24.74;66.40
55576;BME280;41437;45.478;9.116;2023-10-13T15:25:46;100140.09;;;24.49;68.06
55576;BME280;41437;45.478;9.116;2023-10-13T15:28:50;100131.03;;;24.44;68.02
55576;BME280;41437;45.478;9.116;2023-10-13T15:31:53;100127.69;;;24.29;68.46
55576;BME280;41437;45.478;9.116;2023-10-13T15:35:25;100135.34;;;24.41;66.47
55576;BME280;41437;45.478;9.116;2023-10-13T15:38:28;100129.31;;;24.30;67.91
55576;BME280;41437;45.478;9.116;2023-10-13T15:41:32;100122.22;;;24.12;70.67
55576;BME280;41437;45.478;9.116;2023-10-13T15:44:35;100123.28;;;24.20;68.29
55576;BME280;41437;45.478;9.116;2023-10-13T15:47:38;100124.59;;;24.01;69.60
55576;BME280;41437;45.478;9.116;2023-10-13T15:50:45;100122.75;;;24.05;68.25
55576;BME280;41437;45.478;9.116;2023-10-13T15:53:49;100119.13;;;23.84;69.59
55576;BME280;41437;45.478;9.116;2023-10-13T15:56:53;100124.66;;;23.72;70.71
55576;BME280;41437;45.478;9.116;2023-10-13T15:59:56;100111.56;;;23.46;72.36
55576;BME280;41437;45.478;9.116;2023-10-13T16:02:57;100122.66;;;23.22;73.80
55576;BME280;41437;45.478;9.116;2023-10-13T16:06:03;100125.31;;;23.18;74.85
55576;BME280;41437;45.478;9.116;2023-10-13T16:09:10;100122.38;;;23.06;74.25
55576;BME280;41437;45.478;9.116;2023-10-13T16:12:18;100124.22;;;23.02;75.07
55576;BME280;41437;45.478;9.116;2023-10-13T16:15:19;100120.97;;;22.91;75.89
55576;BME280;41437;45.478;9.116;2023-10-13T16:18:21;100114.09;;;22.63;78.94
55576;BME280;41437;45.478;9.116;2023-10-13T16:21:23;100118.47;;;22.34;82.21
55576;BME280;41437;45.478;9.116;2023-10-13T16:24:25;100111.53;;;22.05;85.75
55576;BME280;41437;45.478;9.116;2023-10-13T16:27:29;100107.09;;;21.87;88.79
55576;BME280;41437;45.478;9.116;2023-10-13T16:30:30;100105.28;;;21.74;88.28